createdAt,value
2019-02-15T00:00:58.433Z,103132.09
2019-02-15T00:03:28.199Z,103127.41
2019-02-15T00:05:57.803Z,103137.73
2019-02-15T00:08:27.689Z,103131.98
2019-02-15T00:10:57.192Z,103132.36
2019-02-15T00:13:26.756Z,103135.59
2019-02-15T00:15:56.424Z,103140.66
2019-02-15T00:18:30.426Z,103142.53
2019-02-15T00:21:13.977Z,103135.22
2019-02-15T00:23:44.111Z,103137.63
2019-02-15T00:26:13.760Z,103143.89
2019-02-15T00:28:43.446Z,103135.98
2019-02-15T00:31:15.614Z,103135.03
2019-02-15T00:33:45.348Z,103126.72
2019-02-15T00:36:14.869Z,103129.30
2019-02-15T00:38:44.447Z,103123.53
2019-02-15T00:41:14.050Z,103123.38
2019-02-15T00:43:44.081Z,103118.02
2019-02-15T00:46:22.399Z,103123.77
2019-02-15T00:48:53.583Z,103113.38
2019-02-15T00:51:30.670Z,103125.28
2019-02-15T00:54:18.045Z,103121.19
2019-02-15T00:56:49.214Z,103125.69
2019-02-15T00:59:36.153Z,103129.78
2019-02-15T01:02:10.267Z,103126.42
2019-02-15T01:04:42.401Z,103128.97
2019-02-15T01:07:13.557Z,103129.38
2019-02-15T01:09:47.452Z,103131.05
2019-02-15T01:12:21.258Z,103138.56
2019-02-15T01:14:50.806Z,103132.25
2019-02-15T01:17:20.313Z,103125.00
2019-02-15T01:19:50.332Z,103131.97
2019-02-15T01:22:19.928Z,103123.12
2019-02-15T01:24:50.009Z,103119.89
2019-02-15T01:27:21.159Z,103116.67
2019-02-15T01:30:04.060Z,103111.45
2019-02-15T01:32:41.163Z,103110.99
2019-02-15T01:35:18.237Z,103105.42
2019-02-15T01:37:52.171Z,103106.50
2019-02-15T01:40:29.321Z,103103.75
2019-02-15T01:43:03.191Z,103100.19
2019-02-15T01:45:34.428Z,103103.27
2019-02-15T01:48:04.027Z,103102.98
2019-02-15T01:50:33.621Z,103110.03
2019-02-15T01:53:03.214Z,103101.53
2019-02-15T01:55:32.721Z,103103.80
2019-02-15T01:58:02.303Z,103101.92
2019-02-15T02:00:32.961Z,103107.73
2019-02-15T02:03:02.613Z,103105.28
2019-02-15T02:05:32.319Z,103106.75
2019-02-15T02:08:01.926Z,103103.27
2019-02-15T02:10:32.017Z,103106.19
2019-02-15T02:13:01.627Z,103104.86
2019-02-15T02:15:31.127Z,103110.89
2019-02-15T02:18:01.169Z,103096.82
2019-02-15T02:20:32.829Z,103099.99
2019-02-15T02:23:02.407Z,103099.69
2019-02-15T02:25:33.273Z,103106.88
2019-02-15T02:28:02.985Z,103106.35
2019-02-15T02:30:32.506Z,103104.98
2019-02-15T02:33:02.037Z,103103.17
2019-02-15T02:35:31.707Z,103101.84
2019-02-15T02:38:01.368Z,103104.64
2019-02-15T02:40:30.870Z,103100.22
2019-02-15T02:43:01.652Z,103098.12
2019-02-15T02:45:31.225Z,103101.55
2019-02-15T02:48:00.735Z,103105.98
2019-02-15T02:50:30.263Z,103104.42
2019-02-15T02:53:00.281Z,103101.30
2019-02-15T02:55:29.829Z,103102.30
2019-02-15T02:57:59.455Z,103099.52
2019-02-15T03:00:33.654Z,103103.16
2019-02-15T03:03:00.192Z,103099.20
2019-02-15T03:05:30.027Z,103100.64
2019-02-15T03:07:59.529Z,103105.37
2019-02-15T03:10:29.037Z,103100.48
2019-02-15T03:12:58.573Z,103095.88
2019-02-15T03:15:28.081Z,103100.06
2019-02-15T03:17:57.602Z,103100.38
2019-02-15T03:20:31.144Z,103102.07
2019-02-15T03:22:59.604Z,103098.61
2019-02-15T03:25:29.119Z,103107.97
2019-02-15T03:28:00.360Z,103101.47
2019-02-15T03:30:29.895Z,103091.28
2019-02-15T03:32:59.449Z,103094.08
2019-02-15T03:35:29.017Z,103088.77
2019-02-15T03:38:00.248Z,103093.48
2019-02-15T03:40:31.436Z,103098.08
2019-02-15T03:43:01.711Z,103091.03
2019-02-15T03:45:31.257Z,103093.78
2019-02-15T03:48:00.746Z,103099.72
2019-02-15T03:50:30.318Z,103098.73
2019-02-15T03:53:00.305Z,103099.84
2019-02-15T03:55:29.992Z,103096.98
2019-02-15T03:57:59.600Z,103092.89
2019-02-15T04:00:29.769Z,103096.58
2019-02-15T04:02:59.371Z,103095.30
2019-02-15T04:05:29.246Z,103090.85
2019-02-15T04:07:58.773Z,103101.06
2019-02-15T04:10:28.334Z,103096.02
2019-02-15T04:12:57.960Z,103093.59
2019-02-15T04:15:27.471Z,103090.64
2019-02-15T04:17:57.043Z,103095.64
2019-02-15T04:20:26.584Z,103093.48
2019-02-15T04:22:56.095Z,103086.73
2019-02-15T04:25:25.606Z,103088.55
2019-02-15T04:27:56.294Z,103090.92
2019-02-15T04:30:25.831Z,103090.52
2019-02-15T04:32:55.407Z,103085.33
2019-02-15T04:35:24.936Z,103089.06
2019-02-15T04:37:55.000Z,103090.22
2019-02-15T04:40:24.504Z,103083.57
2019-02-15T04:42:54.054Z,103079.10
2019-02-15T04:45:23.553Z,103081.12
2019-02-15T04:47:53.247Z,103076.80
2019-02-15T04:50:24.823Z,103076.62
2019-02-15T04:52:54.402Z,103075.14
2019-02-15T04:55:24.013Z,103076.27
2019-02-15T04:57:53.650Z,103071.92
2019-02-15T05:00:23.382Z,103072.13
2019-02-15T05:02:53.065Z,103067.06
2019-02-15T05:05:22.646Z,103068.43
2019-02-15T05:07:52.248Z,103072.44
2019-02-15T05:10:22.268Z,103073.17
2019-02-15T05:12:52.900Z,103072.97
2019-02-15T05:15:22.558Z,103071.09
2019-02-15T05:17:52.094Z,103072.95
2019-02-15T05:20:21.616Z,103070.33
2019-02-15T05:22:51.146Z,103072.59
2019-02-15T05:25:20.685Z,103082.43
2019-02-15T05:27:50.301Z,103080.41
2019-02-15T05:30:19.896Z,103077.29
2019-02-15T05:32:49.402Z,103075.44
2019-02-15T05:35:19.062Z,103077.63
2019-02-15T05:37:48.635Z,103074.84
2019-02-15T05:40:18.152Z,103071.08
2019-02-15T05:42:48.016Z,103065.66
2019-02-15T05:45:18.062Z,103065.23
2019-02-15T05:47:47.560Z,103069.82
2019-02-15T05:50:17.192Z,103066.44
2019-02-15T05:52:46.698Z,103067.91
2019-02-15T05:55:16.196Z,103072.47
2019-02-15T05:57:46.075Z,103067.67
2019-02-15T06:00:15.582Z,103065.41
2019-02-15T06:02:45.123Z,103062.93
2019-02-15T06:05:14.660Z,103069.90
2019-02-15T06:07:44.335Z,103066.59
2019-02-15T06:10:13.951Z,103068.56
2019-02-15T06:12:43.506Z,103076.05
2019-02-15T06:15:15.488Z,103068.81
2019-02-15T06:17:44.251Z,103072.09
2019-02-15T06:20:14.796Z,103072.11
2019-02-15T06:22:44.315Z,103074.91
2019-02-15T06:25:13.861Z,103080.97
2019-02-15T06:27:43.542Z,103084.37
2019-02-15T06:30:13.036Z,103081.98
2019-02-15T06:32:42.690Z,103080.76
2019-02-15T06:35:12.381Z,103076.23
2019-02-15T06:37:41.912Z,103087.87
2019-02-15T06:40:11.511Z,103085.52
2019-02-15T06:42:41.411Z,103089.78
2019-02-15T06:45:10.988Z,103093.11
2019-02-15T06:47:40.539Z,103087.70
2019-02-15T06:50:10.139Z,103093.52
2019-02-15T06:52:39.790Z,103091.72
2019-02-15T06:55:09.382Z,103097.27
2019-02-15T06:57:38.907Z,103096.20
2019-02-15T07:00:19.259Z,103086.54
2019-02-15T07:02:53.535Z,103093.58
2019-02-15T07:05:29.211Z,103090.23
2019-02-15T07:07:59.253Z,103094.66
2019-02-15T07:10:28.824Z,103097.13
2019-02-15T07:12:58.474Z,103089.97
2019-02-15T07:15:33.685Z,103088.79
2019-02-15T07:18:00.306Z,103088.13
2019-02-15T07:20:30.036Z,103088.92
2019-02-15T07:22:59.638Z,103097.20
2019-02-15T07:25:29.273Z,103094.05
2019-02-15T07:27:58.789Z,103091.13
2019-02-15T07:30:28.308Z,103095.80
2019-02-15T07:32:57.947Z,103095.80
2019-02-15T07:35:27.563Z,103098.80
2019-02-15T07:37:57.082Z,103095.91
2019-02-15T07:40:27.176Z,103102.06
2019-02-15T07:42:56.743Z,103097.64
2019-02-15T07:45:26.417Z,103099.69
2019-02-15T07:47:55.959Z,103099.36
2019-02-15T07:50:25.533Z,103099.58
2019-02-15T07:52:55.120Z,103097.61
2019-02-15T07:55:24.678Z,103100.05
2019-02-15T07:57:54.192Z,103104.01
2019-02-15T08:00:23.688Z,103098.08
2019-02-15T08:02:53.282Z,103096.33
2019-02-15T08:05:23.495Z,103087.04
2019-02-15T08:07:53.175Z,103090.83
2019-02-15T08:10:22.755Z,103085.81
2019-02-15T08:12:52.336Z,103085.82
2019-02-15T08:15:21.923Z,103085.39
2019-02-15T08:17:51.562Z,103085.53
2019-02-15T08:20:21.050Z,103080.01
2019-02-15T08:22:50.549Z,103076.14
2019-02-15T08:25:21.151Z,103071.05
2019-02-15T08:27:50.688Z,103060.95
2019-02-15T08:30:22.070Z,103067.83
2019-02-15T08:33:04.197Z,103067.59
2019-02-15T08:35:34.081Z,103067.71
2019-02-15T08:38:03.811Z,103066.79
2019-02-15T08:40:33.592Z,103064.53
2019-02-15T08:43:03.156Z,103065.88
2019-02-15T08:45:32.678Z,103070.00
2019-02-15T08:48:02.281Z,103083.77
2019-02-15T08:50:31.818Z,103069.75
2019-02-15T08:53:01.303Z,103072.80
2019-02-15T08:55:30.957Z,103076.30
2019-02-15T08:58:00.504Z,103071.80
2019-02-15T09:00:30.013Z,103072.73
2019-02-15T09:03:01.806Z,103068.92
2019-02-15T09:05:31.513Z,103069.25
2019-02-15T09:08:01.031Z,103065.19
2019-02-15T09:10:30.587Z,103070.92
2019-02-15T09:13:00.134Z,103068.50
2019-02-15T09:15:29.655Z,103072.00
2019-02-15T09:17:59.209Z,103070.98
2019-02-15T09:20:28.847Z,103067.61
2019-02-15T09:22:58.406Z,103062.70
2019-02-15T09:25:30.816Z,103065.38
2019-02-15T09:28:13.896Z,103065.05
2019-02-15T09:30:45.043Z,103063.89
2019-02-15T09:33:14.543Z,103068.59
2019-02-15T09:35:44.048Z,103057.67
2019-02-15T09:38:13.668Z,103059.79
2019-02-15T09:40:43.164Z,103056.73
2019-02-15T09:43:12.731Z,103060.17
2019-02-15T09:45:42.715Z,103054.44
2019-02-15T09:48:12.309Z,103046.39
2019-02-15T09:50:41.828Z,103054.98
2019-02-15T09:53:11.395Z,103060.80
2019-02-15T09:55:40.971Z,103059.75
2019-02-15T09:58:10.482Z,103061.19
2019-02-15T10:00:40.188Z,103052.91
2019-02-15T10:03:09.766Z,103050.16
2019-02-15T10:05:39.297Z,103054.47
2019-02-15T10:08:09.022Z,103048.53
2019-02-15T10:10:38.515Z,103044.07
2019-02-15T10:13:08.026Z,103050.19
2019-02-15T10:15:37.629Z,103046.52
2019-02-15T10:18:07.157Z,103052.04
2019-02-15T10:20:36.684Z,103049.82
2019-02-15T10:23:06.947Z,103045.97
2019-02-15T10:25:36.446Z,103046.17
2019-02-15T10:28:06.213Z,103050.81
2019-02-15T10:30:37.026Z,103041.03
2019-02-15T10:33:06.638Z,103038.89
2019-02-15T10:35:36.156Z,103039.77
2019-02-15T10:38:05.757Z,103038.78
2019-02-15T10:40:35.287Z,103041.45
2019-02-15T10:43:05.138Z,103037.22
2019-02-15T10:45:34.768Z,103031.21
2019-02-15T10:48:04.319Z,103029.09
2019-02-15T10:50:33.963Z,103020.42
2019-02-15T10:53:03.822Z,103024.54
2019-02-15T10:55:33.324Z,103021.69
2019-02-15T10:58:02.832Z,103020.00
2019-02-15T11:00:32.424Z,103017.05
2019-02-15T11:03:01.954Z,103014.56
2019-02-15T11:05:31.502Z,103007.11
2019-02-15T11:08:01.046Z,103005.43
2019-02-15T11:10:31.954Z,103009.66
2019-02-15T11:13:01.894Z,103000.54
2019-02-15T11:15:31.810Z,102998.88
2019-02-15T11:18:01.446Z,102998.72
2019-02-15T11:20:30.991Z,102993.91
2019-02-15T11:23:00.616Z,103002.72
2019-02-15T11:25:30.201Z,102997.28
2019-02-15T11:27:59.778Z,102995.37
2019-02-15T11:30:29.409Z,102997.73
2019-02-15T11:32:58.950Z,102986.22
2019-02-15T11:35:28.430Z,102984.53
2019-02-15T11:37:58.100Z,102984.72
2019-02-15T11:40:27.682Z,102983.97
2019-02-15T11:42:57.280Z,102977.01
2019-02-15T11:45:26.819Z,102965.99
2019-02-15T11:47:56.421Z,102966.16
2019-02-15T11:50:26.008Z,102968.45
2019-02-15T11:52:55.580Z,102961.11
2019-02-15T11:55:25.119Z,102956.50
2019-02-15T11:57:54.692Z,102958.32
2019-02-15T12:00:26.177Z,102954.86
2019-02-15T12:02:55.723Z,102949.00
2019-02-15T12:05:25.258Z,102947.84
2019-02-15T12:07:54.868Z,102939.42
2019-02-15T12:10:24.364Z,102944.38
2019-02-15T12:12:53.953Z,102936.24
2019-02-15T12:15:23.586Z,102931.48
2019-02-15T12:17:53.171Z,102924.41
2019-02-15T12:20:22.774Z,102928.53
2019-02-15T12:22:53.823Z,102919.59
2019-02-15T12:25:23.520Z,102909.59
2019-02-15T12:27:53.059Z,102910.73
2019-02-15T12:30:22.761Z,102901.78
2019-02-15T12:32:52.376Z,102901.81
2019-02-15T12:35:21.964Z,102900.42
2019-02-15T12:37:51.546Z,102894.64
2019-02-15T12:40:21.053Z,102897.85
2019-02-15T12:42:50.667Z,102891.97
2019-02-15T12:45:21.680Z,102887.98
2019-02-15T12:47:51.275Z,102882.62
2019-02-15T12:50:21.860Z,102881.14
2019-02-15T12:52:51.421Z,102878.06
2019-02-15T12:55:20.918Z,102878.09
2019-02-15T12:57:50.524Z,102869.67
2019-02-15T13:00:20.156Z,102869.38
2019-02-15T13:02:49.737Z,102860.14
2019-02-15T13:05:19.403Z,102865.20
2019-02-15T13:07:49.110Z,102860.41
2019-02-15T13:10:20.352Z,102860.18
2019-02-15T13:12:49.861Z,102861.23
2019-02-15T13:15:19.464Z,102849.89
2019-02-15T13:17:50.574Z,102856.12
2019-02-15T13:20:20.555Z,102844.72
2019-02-15T13:22:51.095Z,102845.06
2019-02-15T13:25:20.619Z,102837.22
2019-02-15T13:27:50.147Z,102834.40
2019-02-15T13:30:19.832Z,102828.92
2019-02-15T13:32:49.385Z,102830.06
2019-02-15T13:35:23.505Z,102821.50
2019-02-15T13:37:53.958Z,102816.69
2019-02-15T13:40:23.500Z,102818.22
2019-02-15T13:42:53.029Z,102814.12
2019-02-15T13:45:22.645Z,102810.08
2019-02-15T13:47:52.287Z,102805.81
2019-02-15T13:50:22.189Z,102802.99
2019-02-15T13:52:51.833Z,102800.89
2019-02-15T13:55:21.410Z,102793.38
2019-02-15T13:57:50.997Z,102795.94
2019-02-15T14:00:20.784Z,102795.42
2019-02-15T14:02:50.563Z,102794.79
2019-02-15T14:05:20.203Z,102788.05
2019-02-15T14:07:49.748Z,102787.95
2019-02-15T14:10:19.290Z,102791.97
2019-02-15T14:12:48.869Z,102783.41
2019-02-15T14:15:18.487Z,102769.81
2019-02-15T14:17:48.836Z,102780.38
2019-02-15T14:20:19.021Z,102778.82
2019-02-15T14:22:49.120Z,102775.86
2019-02-15T14:25:18.675Z,102780.55
2019-02-15T14:27:48.300Z,102776.78
2019-02-15T14:30:20.783Z,102767.94
2019-02-15T14:32:50.433Z,102768.42
2019-02-15T14:35:20.103Z,102760.12
2019-02-15T14:37:51.181Z,102758.83
2019-02-15T14:40:20.824Z,102757.09
2019-02-15T14:42:50.434Z,102757.34
2019-02-15T14:45:20.108Z,102749.86
2019-02-15T14:47:54.956Z,102749.08
2019-02-15T14:50:20.992Z,102745.52
2019-02-15T14:52:50.578Z,102745.70
2019-02-15T14:55:20.247Z,102741.64
2019-02-15T14:57:49.794Z,102737.47
2019-02-15T15:00:19.467Z,102735.01
2019-02-15T15:02:49.038Z,102734.21
2019-02-15T15:05:18.945Z,102732.45
2019-02-15T15:07:48.455Z,102729.91
2019-02-15T15:10:18.055Z,102724.19
2019-02-15T15:12:47.665Z,102721.36
2019-02-15T15:15:18.014Z,102722.92
2019-02-15T15:17:49.890Z,102713.67
2019-02-15T15:20:18.885Z,102717.72
2019-02-15T15:22:48.768Z,102715.89
2019-02-15T15:25:18.504Z,102701.66
2019-02-15T15:27:48.135Z,102700.77
2019-02-15T15:30:18.211Z,102695.98
2019-02-15T15:32:47.707Z,102695.06
2019-02-15T15:35:17.309Z,102697.55
2019-02-15T15:37:46.849Z,102687.37
2019-02-15T15:40:17.894Z,102690.47
2019-02-15T15:42:47.525Z,102682.53
2019-02-15T15:45:17.227Z,102682.85
2019-02-15T15:47:47.425Z,102682.58
2019-02-15T15:50:17.058Z,102676.88
2019-02-15T15:52:46.683Z,102674.91
2019-02-15T15:55:17.726Z,102675.71
2019-02-15T15:57:48.115Z,102674.84
2019-02-15T16:00:18.187Z,102672.65
2019-02-15T16:02:48.071Z,102671.78
2019-02-15T16:05:17.964Z,102676.55
2019-02-15T16:07:51.304Z,102669.21
2019-02-15T16:10:21.248Z,102670.57
2019-02-15T16:12:51.201Z,102669.05
2019-02-15T16:15:20.942Z,102667.31
2019-02-15T16:17:50.442Z,102665.25
2019-02-15T16:20:20.072Z,102663.99
2019-02-15T16:22:49.916Z,102666.38
2019-02-15T16:25:19.529Z,102665.73
2019-02-15T16:27:49.141Z,102663.39
2019-02-15T16:30:18.868Z,102667.13
2019-02-15T16:32:48.504Z,102661.06
2019-02-15T16:35:18.131Z,102657.09
2019-02-15T16:37:47.669Z,102655.38
2019-02-15T16:40:17.942Z,102651.66
2019-02-15T16:42:47.483Z,102648.80
2019-02-15T16:45:18.185Z,102650.29
2019-02-15T16:47:47.794Z,102651.38
2019-02-15T16:50:17.397Z,102655.00
2019-02-15T16:52:46.964Z,102657.57
2019-02-15T16:55:16.552Z,102649.93
2019-02-15T16:57:46.135Z,102650.08
2019-02-15T17:00:15.972Z,102660.41
2019-02-15T17:02:45.503Z,102652.86
2019-02-15T17:05:15.246Z,102655.28
2019-02-15T17:07:45.006Z,102649.36
2019-02-15T17:10:14.853Z,102648.89
2019-02-15T17:12:44.477Z,102652.06
2019-02-15T17:15:15.666Z,102657.27
2019-02-15T17:17:45.265Z,102652.09
2019-02-15T17:20:14.936Z,102653.76
2019-02-15T17:22:44.575Z,102652.57
2019-02-15T17:25:14.259Z,102648.41
2019-02-15T17:27:43.824Z,102648.36
2019-02-15T17:30:15.932Z,102651.73
2019-02-15T17:32:45.664Z,102650.37
2019-02-15T17:35:15.339Z,102643.55
2019-02-15T17:37:44.908Z,102643.69
2019-02-15T17:40:17.950Z,102643.69
2019-02-15T17:42:48.186Z,102644.25
2019-02-15T17:45:18.220Z,102638.14
2019-02-15T17:47:48.218Z,102636.14
2019-02-15T17:50:17.911Z,102634.95
2019-02-15T17:52:47.446Z,102635.68
2019-02-15T17:55:17.130Z,102638.58
2019-02-15T17:57:46.789Z,102639.38
2019-02-15T18:00:18.524Z,102639.59
2019-02-15T18:02:48.104Z,102638.66
2019-02-15T18:05:17.799Z,102641.44
2019-02-15T18:07:50.034Z,102637.90
2019-02-15T18:10:19.560Z,102633.80
2019-02-15T18:12:49.563Z,102633.61
2019-02-15T18:15:19.285Z,102634.72
2019-02-15T18:17:49.353Z,102630.47
2019-02-15T18:20:19.174Z,102627.92
2019-02-15T18:22:48.781Z,102632.59
2019-02-15T18:25:18.610Z,102631.86
2019-02-15T18:27:48.247Z,102620.82
2019-02-15T18:30:19.225Z,102612.70
2019-02-15T18:32:48.843Z,102609.74
2019-02-15T18:35:18.644Z,102614.89
2019-02-15T18:37:48.577Z,102615.38
2019-02-15T18:40:18.893Z,102616.63
2019-02-15T18:42:49.167Z,102611.06
2019-02-15T18:45:19.020Z,102610.80
2019-02-15T18:47:48.719Z,102610.25
2019-02-15T18:50:18.860Z,102609.80
2019-02-15T18:52:48.543Z,102613.25
2019-02-15T18:55:18.254Z,102603.25
2019-02-15T18:57:48.045Z,102594.80
2019-02-15T19:00:18.114Z,102600.59
2019-02-15T19:02:50.752Z,102597.13
2019-02-15T19:05:20.519Z,102590.70
2019-02-15T19:07:50.116Z,102590.48
2019-02-15T19:10:23.033Z,102594.39
2019-02-15T19:12:54.161Z,102588.47
2019-02-15T19:15:23.827Z,102582.30
2019-02-15T19:17:53.515Z,102583.27
2019-02-15T19:20:23.133Z,102576.11
2019-02-15T19:22:52.875Z,102576.72
2019-02-15T19:25:22.371Z,102571.92
2019-02-15T19:27:52.267Z,102576.34
2019-02-15T19:30:33.882Z,102575.47
2019-02-15T19:33:03.912Z,102577.29
2019-02-15T19:35:33.665Z,102574.83
2019-02-15T19:38:03.423Z,102577.14
2019-02-15T19:40:32.967Z,102571.92
2019-02-15T19:43:10.378Z,102568.98
2019-02-15T19:45:40.454Z,102568.41
2019-02-15T19:48:10.006Z,102565.39
2019-02-15T19:50:39.522Z,102550.92
2019-02-15T19:53:14.071Z,102554.83
2019-02-15T19:55:43.745Z,102547.84
2019-02-15T19:58:13.451Z,102544.39
2019-02-15T20:00:43.204Z,102546.27
2019-02-15T20:03:12.850Z,102547.58
2019-02-15T20:05:42.566Z,102544.63
2019-02-15T20:08:13.049Z,102541.92
2019-02-15T20:10:42.631Z,102547.95
2019-02-15T20:13:12.296Z,102534.30
2019-02-15T20:15:41.912Z,102533.96
2019-02-15T20:18:11.414Z,102537.66
2019-02-15T20:20:41.437Z,102529.87
2019-02-15T20:23:11.465Z,102529.76
2019-02-15T20:25:41.005Z,102534.11
2019-02-15T20:28:14.211Z,102523.70
2019-02-15T20:30:41.759Z,102519.00
2019-02-15T20:33:11.361Z,102526.81
2019-02-15T20:35:41.045Z,102531.66
2019-02-15T20:38:10.761Z,102519.73
2019-02-15T20:40:40.280Z,102522.04
2019-02-15T20:43:09.885Z,102528.08
2019-02-15T20:45:39.419Z,102530.03
2019-02-15T20:48:11.998Z,102521.14
2019-02-15T20:50:40.257Z,102513.53
2019-02-15T20:53:09.903Z,102517.83
2019-02-15T20:55:39.710Z,102520.91
2019-02-15T20:58:09.241Z,102518.06
2019-02-15T21:00:38.908Z,102517.85
2019-02-15T21:03:08.533Z,102510.97
2019-02-15T21:05:38.649Z,102513.88
2019-02-15T21:08:08.339Z,102513.73
2019-02-15T21:10:38.327Z,102512.19
2019-02-15T21:13:08.128Z,102511.23
2019-02-15T21:15:37.776Z,102509.02
2019-02-15T21:18:07.296Z,102506.68
2019-02-15T21:20:36.895Z,102503.42
2019-02-15T21:23:08.708Z,102497.45
2019-02-15T21:25:38.447Z,102495.77
2019-02-15T21:28:07.986Z,102494.41
2019-02-15T21:30:38.781Z,102489.75
2019-02-15T21:33:09.159Z,102492.11
2019-02-15T21:35:39.055Z,102486.67
2019-02-15T21:38:08.737Z,102489.12
2019-02-15T21:40:38.874Z,102484.05
2019-02-15T21:43:08.699Z,102482.05
2019-02-15T21:45:38.677Z,102480.51
2019-02-15T21:48:08.153Z,102469.55
2019-02-15T21:50:37.661Z,102469.68
2019-02-15T21:53:07.398Z,102460.71
2019-02-15T21:55:37.084Z,102458.32
2019-02-15T21:58:06.829Z,102455.00
2019-02-15T22:00:36.899Z,102456.30
2019-02-15T22:03:06.555Z,102451.70
2019-02-15T22:05:36.058Z,102454.13
2019-02-15T22:08:05.626Z,102457.49
2019-02-15T22:10:35.256Z,102460.66
2019-02-15T22:13:04.801Z,102453.75
2019-02-15T22:15:34.391Z,102456.17
2019-02-15T22:18:04.299Z,102455.44
2019-02-15T22:20:33.878Z,102446.38
2019-02-15T22:23:03.511Z,102453.94
2019-02-15T22:25:33.077Z,102456.79
2019-02-15T22:28:02.726Z,102451.61
2019-02-15T22:30:32.362Z,102455.50
2019-02-15T22:33:01.937Z,102451.01
2019-02-15T22:35:31.518Z,102454.53
2019-02-15T22:38:01.050Z,102451.61
2019-02-15T22:40:37.631Z,102457.07
2019-02-15T22:43:20.447Z,102452.15
2019-02-15T22:45:49.948Z,102450.19
2019-02-15T22:48:19.702Z,102450.05
2019-02-15T22:50:49.300Z,102438.27
2019-02-15T22:53:18.828Z,102445.18
2019-02-15T22:55:48.538Z,102445.52
2019-02-15T22:58:18.116Z,102441.20
2019-02-15T23:01:07.309Z,102439.03
2019-02-15T23:03:37.536Z,102434.66
2019-02-15T23:06:07.358Z,102437.69
2019-02-15T23:08:36.944Z,102429.32
2019-02-15T23:11:07.658Z,102424.41
2019-02-15T23:13:38.361Z,102427.80
2019-02-15T23:16:07.938Z,102425.22
2019-02-15T23:18:37.582Z,102430.51
2019-02-15T23:21:07.212Z,102421.55
2019-02-15T23:23:36.718Z,102429.53
2019-02-15T23:26:06.801Z,102425.75
2019-02-15T23:28:36.338Z,102431.58
2019-02-15T23:31:05.906Z,102429.48
2019-02-15T23:33:35.555Z,102424.30
2019-02-15T23:36:05.114Z,102422.07
2019-02-15T23:38:36.144Z,102415.54
2019-02-15T23:41:05.825Z,102416.09
2019-02-15T23:43:35.436Z,102404.64
2019-02-15T23:46:05.071Z,102406.10
2019-02-15T23:48:34.990Z,102397.52
2019-02-15T23:51:04.511Z,102406.80
2019-02-15T23:53:34.061Z,102399.63
2019-02-15T23:56:03.604Z,102398.06
2019-02-15T23:58:33.118Z,102395.84
